Terminal Aerodrome Forecast
Issued by NWS Mt. Holly, NJ

Current Version | Previous Version | Text Only | Print | Product List | Glossary On
Versions: 1 2 3 4 5 6 7 8 9 10 11 12 13 14 15 16 17
172
FTUS41 KPHI 260100 AAA
TAFABE
TAF AMD
KABE 260100Z 2601/2624 06010KT P6SM OVC060
     FM260300 07008KT P6SM OVC030
     FM260500 08008KT P6SM VCSH OVC015
     FM260800 08008KT 6SM -DZ BR OVC008
     FM261600 09008KT P6SM OVC010
     FM262000 09010KT 3SM -SHRA OVC010=

USA.gov is the U.S. government's official web portal to all federal, state and local government web resources and services.